createdAt,value
2019-05-22T00:01:34.096Z,29.83
2019-05-22T00:04:45.119Z,29.94
2019-05-22T00:07:24.014Z,30.02
2019-05-22T00:10:03.220Z,29.69
2019-05-22T00:12:46.551Z,29.87
2019-05-22T00:15:23.864Z,29.79
2019-05-22T00:18:02.793Z,29.89
2019-05-22T00:20:42.714Z,29.83
2019-05-22T00:23:20.139Z,29.92
2019-05-22T00:25:57.324Z,29.94
2019-05-22T00:28:35.591Z,29.87
2019-05-22T00:31:15.861Z,29.98
2019-05-22T00:33:53.409Z,30.06
2019-05-22T00:36:32.844Z,30.05
2019-05-22T00:39:11.343Z,30.20
2019-05-22T00:41:52.917Z,30.41
2019-05-22T00:44:30.507Z,30.41
2019-05-22T00:47:14.413Z,30.32
2019-05-22T00:49:53.356Z,30.10
2019-05-22T00:52:56.437Z,30.46
2019-05-22T00:55:50.513Z,30.75
2019-05-22T00:58:49.184Z,30.94
2019-05-22T01:01:38.890Z,31.05
2019-05-22T01:04:23.147Z,31.28
2019-05-22T01:07:01.967Z,31.36
2019-05-22T01:09:43.703Z,31.42
2019-05-22T01:12:34.566Z,31.56
2019-05-22T01:15:16.226Z,31.89
2019-05-22T01:17:55.215Z,31.48
2019-05-22T01:20:34.965Z,31.61
2019-05-22T01:23:14.237Z,31.90
2019-05-22T01:25:53.147Z,32.03
2019-05-22T01:28:31.259Z,31.74
2019-05-22T01:31:17.083Z,31.96
2019-05-22T01:34:23.033Z,32.27
2019-05-22T01:37:06.160Z,31.90
2019-05-22T01:39:59.982Z,31.56
2019-05-22T01:42:51.004Z,32.22
2019-05-22T01:45:29.279Z,32.46
2019-05-22T01:48:13.028Z,32.58
2019-05-22T01:50:56.706Z,32.33
2019-05-22T01:53:39.206Z,31.69
2019-05-22T01:56:20.782Z,31.70
2019-05-22T01:58:59.059Z,31.80
2019-05-22T02:01:36.623Z,32.07
2019-05-22T02:04:15.104Z,32.29
2019-05-22T02:06:53.865Z,32.17
2019-05-22T02:09:38.612Z,32.53
2019-05-22T02:12:26.458Z,32.53
2019-05-22T02:15:04.262Z,31.79
2019-05-22T02:17:42.218Z,32.35
2019-05-22T02:20:24.059Z,32.29
2019-05-22T02:23:01.137Z,32.56
2019-05-22T02:25:38.975Z,32.51
2019-05-22T02:28:17.886Z,32.64
2019-05-22T02:30:57.223Z,32.71
2019-05-22T02:33:36.552Z,32.46
2019-05-22T02:36:14.280Z,32.20
2019-05-22T02:38:53.125Z,32.35
2019-05-22T02:41:37.379Z,32.14
2019-05-22T02:44:15.006Z,32.25
2019-05-22T02:50:09.251Z,32.11
2019-05-22T02:52:47.695Z,32.21
2019-05-22T02:55:25.008Z,32.16
2019-05-22T02:58:02.918Z,32.29
2019-05-22T03:00:51.980Z,32.60
2019-05-22T03:03:30.545Z,32.59
2019-05-22T03:06:11.528Z,32.95
2019-05-22T03:09:12.243Z,33.33
2019-05-22T03:11:53.258Z,33.00
2019-05-22T03:14:34.154Z,32.98
2019-05-22T03:17:19.770Z,32.81
2019-05-22T03:19:57.993Z,32.43
2019-05-22T03:22:45.440Z,33.03
2019-05-22T03:25:24.780Z,32.73
2019-05-22T03:28:03.346Z,33.00
2019-05-22T03:30:43.331Z,32.86
2019-05-22T03:33:20.901Z,32.94
2019-05-22T03:36:12.375Z,33.20
2019-05-22T03:38:50.349Z,33.19
2019-05-22T03:41:29.201Z,33.31
2019-05-22T03:44:07.765Z,33.01
2019-05-22T03:46:49.249Z,33.19
2019-05-22T03:49:30.414Z,33.25
2019-05-22T03:52:07.334Z,33.47
2019-05-22T03:54:46.276Z,33.33
2019-05-22T03:57:24.124Z,33.79
2019-05-22T04:00:01.820Z,33.70
2019-05-22T04:02:40.694Z,33.45
2019-05-22T04:05:18.800Z,33.52
2019-05-22T04:07:59.745Z,33.99
2019-05-22T04:10:43.113Z,33.84
2019-05-22T04:13:20.256Z,33.65
2019-05-22T04:15:58.330Z,33.96
2019-05-22T04:18:37.031Z,33.77
2019-05-22T04:21:14.315Z,33.96
2019-05-22T04:23:52.328Z,33.59
2019-05-22T04:26:30.758Z,33.75
2019-05-22T04:29:12.945Z,33.81
2019-05-22T04:32:21.638Z,33.68
2019-05-22T04:34:59.941Z,33.87
2019-05-22T04:37:37.298Z,33.94
2019-05-22T04:40:53.013Z,33.94
2019-05-22T04:43:36.609Z,34.16
2019-05-22T04:46:14.809Z,34.64
2019-05-22T04:48:52.271Z,34.56
2019-05-22T04:51:33.798Z,34.29
2019-05-22T04:54:13.138Z,34.98
2019-05-22T04:56:52.527Z,35.05
2019-05-22T04:59:29.993Z,35.11
2019-05-22T05:02:08.735Z,34.94
2019-05-22T05:04:46.907Z,35.17
2019-05-22T05:07:24.615Z,35.43
2019-05-22T05:10:01.709Z,35.74
2019-05-22T05:12:42.134Z,35.40
2019-05-22T05:15:19.707Z,35.43
2019-05-22T05:17:57.425Z,35.55
2019-05-22T05:20:34.953Z,35.17
2019-05-22T05:23:12.887Z,35.16
2019-05-22T05:25:50.746Z,35.70
2019-05-22T05:28:29.490Z,35.95
2019-05-22T05:31:06.414Z,35.54
2019-05-22T05:34:01.629Z,35.27
2019-05-22T05:36:39.487Z,35.38
2019-05-22T05:40:02.279Z,35.20
2019-05-22T05:42:42.668Z,35.26
2019-05-22T05:45:20.620Z,35.32
2019-05-22T05:47:58.999Z,35.44
2019-05-22T05:50:40.218Z,35.39
2019-05-22T05:53:21.074Z,34.57
2019-05-22T05:56:18.259Z,35.10
2019-05-22T05:58:56.986Z,35.18
2019-05-22T06:01:41.309Z,35.07
2019-05-22T06:04:33.947Z,35.17
2019-05-22T06:07:25.346Z,35.83
2019-05-22T06:10:37.207Z,36.08
2019-05-22T06:13:14.455Z,36.13
2019-05-22T06:16:31.969Z,35.93
2019-05-22T06:19:11.501Z,36.18
2019-05-22T06:21:50.347Z,36.11
2019-05-22T06:24:37.988Z,35.57
2019-05-22T06:27:32.952Z,36.08
2019-05-22T06:30:16.210Z,35.51
2019-05-22T06:33:08.248Z,35.51
2019-05-22T06:35:46.039Z,35.44
2019-05-22T06:38:57.248Z,35.51
2019-05-22T06:41:38.466Z,35.59
2019-05-22T06:44:44.405Z,35.59
2019-05-22T06:47:26.614Z,35.53
2019-05-22T06:50:04.806Z,36.04
2019-05-22T06:52:42.274Z,36.20
2019-05-22T06:55:19.775Z,36.00
2019-05-22T06:57:56.867Z,36.07
2019-05-22T07:00:34.794Z,35.72
2019-05-22T07:03:13.237Z,35.92
2019-05-22T07:05:51.379Z,35.89
2019-05-22T07:08:29.233Z,35.96
2019-05-22T07:11:06.967Z,35.92
2019-05-22T07:13:47.493Z,35.93
2019-05-22T07:16:26.552Z,35.97
2019-05-22T07:19:05.183Z,35.99
2019-05-22T07:21:42.201Z,35.77
2019-05-22T07:24:21.074Z,35.55
2019-05-22T07:27:00.697Z,35.27
2019-05-22T07:29:38.402Z,35.48
2019-05-22T07:32:16.970Z,35.50
2019-05-22T07:34:55.170Z,35.52
2019-05-22T07:37:33.063Z,35.49
2019-05-22T07:40:11.509Z,35.74
2019-05-22T07:42:49.162Z,35.53
2019-05-22T07:45:30.544Z,35.46
2019-05-22T07:48:08.612Z,35.53
2019-05-22T07:50:49.165Z,35.33
2019-05-22T07:53:27.431Z,35.66
2019-05-22T07:56:08.639Z,35.52
2019-05-22T07:58:47.366Z,35.63
2019-05-22T08:01:24.981Z,35.74
2019-05-22T08:04:05.597Z,35.57
2019-05-22T08:06:44.624Z,35.50
2019-05-22T08:09:21.938Z,35.80
2019-05-22T08:11:59.690Z,35.88
2019-05-22T08:14:37.299Z,35.61
2019-05-22T08:17:16.131Z,35.50
2019-05-22T08:19:53.633Z,35.62
2019-05-22T08:22:32.366Z,35.65
2019-05-22T08:25:09.861Z,35.42
2019-05-22T08:27:48.038Z,35.29
2019-05-22T08:30:25.331Z,35.26
2019-05-22T08:33:04.653Z,34.93
2019-05-22T08:35:43.290Z,35.09
2019-05-22T08:38:21.254Z,35.22
2019-05-22T08:40:58.928Z,34.99
2019-05-22T08:44:03.223Z,35.13
2019-05-22T08:46:17.117Z,34.87
2019-05-22T08:48:56.001Z,34.96
2019-05-22T08:51:33.209Z,35.15
2019-05-22T08:54:10.994Z,35.14
2019-05-22T08:56:53.003Z,35.23
2019-05-22T08:59:28.938Z,35.15
2019-05-22T09:02:06.663Z,35.17
2019-05-22T09:04:44.347Z,35.21
2019-05-22T09:07:23.914Z,35.40
2019-05-22T09:10:02.551Z,35.64
2019-05-22T09:12:41.250Z,35.83
2019-05-22T09:15:19.655Z,35.65
2019-05-22T09:17:56.880Z,35.70
2019-05-22T09:20:48.668Z,35.94
2019-05-22T09:23:15.370Z,36.14
2019-05-22T09:25:52.547Z,35.87
2019-05-22T09:28:30.384Z,36.00
2019-05-22T09:31:09.383Z,35.63
2019-05-22T09:33:46.580Z,35.46
2019-05-22T09:36:24.851Z,35.53
2019-05-22T09:39:03.401Z,35.80
2019-05-22T09:41:42.072Z,35.88
2019-05-22T09:44:20.017Z,35.80
2019-05-22T09:46:59.461Z,35.82
2019-05-22T09:49:37.334Z,35.80
2019-05-22T09:52:15.943Z,35.85
2019-05-22T09:54:53.551Z,35.70
2019-05-22T09:57:31.246Z,35.73
2019-05-22T10:00:10.141Z,35.98
2019-05-22T10:02:49.157Z,36.14
2019-05-22T10:05:27.235Z,35.74
2019-05-22T10:08:05.924Z,35.66
2019-05-22T10:10:46.688Z,35.74
2019-05-22T10:13:29.012Z,35.83
2019-05-22T10:16:04.423Z,35.37
2019-05-22T10:18:41.591Z,34.96
2019-05-22T10:21:19.677Z,34.54
2019-05-22T10:23:58.649Z,34.23
2019-05-22T10:26:36.225Z,34.17
2019-05-22T10:29:14.423Z,34.13
2019-05-22T10:31:51.691Z,34.11
2019-05-22T10:34:31.179Z,34.21
2019-05-22T10:37:10.369Z,34.15
2019-05-22T10:39:48.435Z,34.21
2019-05-22T10:42:26.994Z,34.63
2019-05-22T10:45:05.796Z,34.58
2019-05-22T10:47:44.362Z,34.39
2019-05-22T10:50:22.490Z,34.06
2019-05-22T10:53:00.143Z,33.95
2019-05-22T10:55:38.925Z,34.02
2019-05-22T10:58:16.265Z,34.05
2019-05-22T11:00:54.458Z,34.02
2019-05-22T11:03:31.826Z,34.20
2019-05-22T11:06:09.971Z,34.17
2019-05-22T11:08:47.320Z,34.36
2019-05-22T11:11:25.177Z,34.28
2019-05-22T11:14:09.116Z,34.63
2019-05-22T11:16:44.390Z,33.63
2019-05-22T11:19:20.997Z,32.89
2019-05-22T11:21:59.001Z,32.05
2019-05-22T11:24:36.807Z,31.09
2019-05-22T11:27:14.807Z,31.10
2019-05-22T11:29:52.071Z,31.17
2019-05-22T11:32:30.428Z,31.01
2019-05-22T11:35:09.162Z,30.42
2019-05-22T11:37:47.585Z,30.04
2019-05-22T11:40:26.503Z,30.08
2019-05-22T11:43:04.141Z,30.04
2019-05-22T11:45:45.438Z,29.71
2019-05-22T11:48:23.708Z,29.33
2019-05-22T11:51:01.448Z,28.69
2019-05-22T11:53:39.712Z,28.47
2019-05-22T11:56:16.516Z,28.12
2019-05-22T11:58:54.453Z,27.99
2019-05-22T12:01:31.785Z,27.73
2019-05-22T12:04:10.446Z,27.62
2019-05-22T12:06:47.848Z,27.69
2019-05-22T12:09:26.566Z,27.39
2019-05-22T12:12:04.468Z,27.61
2019-05-22T12:14:41.959Z,27.78
2019-05-22T12:17:36.847Z,27.54
2019-05-22T12:20:01.028Z,27.42
2019-05-22T12:22:38.272Z,27.52
2019-05-22T12:25:16.949Z,27.63
2019-05-22T12:27:54.607Z,27.35
2019-05-22T12:30:32.792Z,27.39
2019-05-22T12:33:13.640Z,26.99
2019-05-22T12:35:50.757Z,26.97
2019-05-22T12:38:28.725Z,26.98
2019-05-22T12:41:07.617Z,27.10
2019-05-22T12:43:45.256Z,27.04
2019-05-22T12:46:23.416Z,27.14
2019-05-22T12:49:08.559Z,27.31
2019-05-22T12:51:44.281Z,27.28
2019-05-22T12:54:21.749Z,27.40
2019-05-22T12:56:59.290Z,27.88
2019-05-22T12:59:36.723Z,28.01
2019-05-22T13:02:15.941Z,27.92
2019-05-22T13:04:53.241Z,27.71
2019-05-22T13:07:30.728Z,27.64
2019-05-22T13:10:08.488Z,27.31
2019-05-22T13:12:47.343Z,28.15
2019-05-22T13:15:26.027Z,28.43
2019-05-22T13:18:03.526Z,28.53
2019-05-22T13:20:44.606Z,28.66
2019-05-22T13:23:25.849Z,28.75
2019-05-22T13:26:03.914Z,28.79
2019-05-22T13:28:42.235Z,28.73
2019-05-22T13:31:20.391Z,28.75
2019-05-22T13:33:59.670Z,28.78
2019-05-22T13:36:37.264Z,28.72
2019-05-22T13:39:14.848Z,28.95
2019-05-22T13:41:53.084Z,28.77
2019-05-22T13:44:31.732Z,28.97
2019-05-22T13:47:09.872Z,28.92
2019-05-22T13:49:47.854Z,29.07
2019-05-22T13:52:26.520Z,29.40
2019-05-22T13:55:06.273Z,29.22
2019-05-22T13:57:43.904Z,29.10
2019-05-22T14:00:23.231Z,29.31
2019-05-22T14:03:01.005Z,29.43
2019-05-22T14:05:40.588Z,29.17
2019-05-22T14:08:18.587Z,29.24
2019-05-22T14:10:56.784Z,29.20
2019-05-22T14:13:34.449Z,29.34
2019-05-22T14:16:13.368Z,29.20
2019-05-22T14:18:50.212Z,28.99
2019-05-22T14:21:27.881Z,29.01
2019-05-22T14:24:06.657Z,29.08
2019-05-22T14:26:45.576Z,29.02
2019-05-22T14:29:22.758Z,29.07
2019-05-22T14:32:00.638Z,29.18
2019-05-22T14:34:37.998Z,28.99
2019-05-22T14:37:16.226Z,29.00
2019-05-22T14:39:54.085Z,29.03
2019-05-22T14:42:31.823Z,29.19
2019-05-22T14:45:09.365Z,29.17
2019-05-22T14:47:48.638Z,29.02
2019-05-22T14:50:28.181Z,28.73
2019-05-22T14:53:05.527Z,28.87
2019-05-22T14:55:45.167Z,28.90
2019-05-22T14:58:23.725Z,28.84
2019-05-22T15:01:01.372Z,29.00
2019-05-22T15:03:38.814Z,28.94
2019-05-22T15:06:16.012Z,29.06
2019-05-22T15:08:54.468Z,29.06
2019-05-22T15:11:31.674Z,29.01
2019-05-22T15:14:09.480Z,29.17
2019-05-22T15:16:47.043Z,29.22
2019-05-22T15:19:26.517Z,29.22
2019-05-22T15:22:03.633Z,29.22
2019-05-22T15:24:42.116Z,29.33
2019-05-22T15:27:21.527Z,29.39
2019-05-22T15:30:00.107Z,29.29
2019-05-22T15:32:37.975Z,29.27
2019-05-22T15:35:15.947Z,29.11
2019-05-22T15:37:53.465Z,29.28
2019-05-22T15:40:31.771Z,29.18
2019-05-22T15:43:14.159Z,29.18
2019-05-22T15:45:49.639Z,29.14
2019-05-22T15:48:31.363Z,29.18
2019-05-22T15:51:15.266Z,29.38
2019-05-22T15:53:52.468Z,29.38
2019-05-22T15:56:31.509Z,29.43
2019-05-22T15:59:12.545Z,29.20
2019-05-22T16:01:50.356Z,29.18
2019-05-22T16:04:28.056Z,29.22
2019-05-22T16:07:06.329Z,29.21
2019-05-22T16:09:45.301Z,29.38
2019-05-22T16:12:22.974Z,29.36
2019-05-22T16:15:00.602Z,29.44
2019-05-22T16:17:41.629Z,29.37
2019-05-22T16:20:19.125Z,29.55
2019-05-22T16:22:58.156Z,29.68
2019-05-22T16:25:35.711Z,29.63
2019-05-22T16:28:13.348Z,29.63
2019-05-22T16:30:51.749Z,29.73
2019-05-22T16:33:31.184Z,29.80
2019-05-22T16:36:08.925Z,30.10
2019-05-22T16:38:46.741Z,29.94
2019-05-22T16:41:24.798Z,29.73
2019-05-22T16:44:03.392Z,30.01
2019-05-22T16:46:42.874Z,29.80
2019-05-22T16:49:20.793Z,29.76
2019-05-22T16:51:59.482Z,29.65
2019-05-22T16:54:37.772Z,29.78
2019-05-22T16:57:15.914Z,29.76
2019-05-22T16:59:53.571Z,29.77
2019-05-22T17:02:33.152Z,29.68
2019-05-22T17:05:12.309Z,29.60
2019-05-22T17:07:49.594Z,29.87
2019-05-22T17:10:28.462Z,30.12
2019-05-22T17:13:07.078Z,30.08
2019-05-22T17:15:48.743Z,30.00
2019-05-22T17:18:47.159Z,30.06
2019-05-22T17:21:15.645Z,30.21
2019-05-22T17:23:59.763Z,30.15
2019-05-22T17:26:38.984Z,29.99
2019-05-22T17:29:17.868Z,29.92
2019-05-22T17:31:55.527Z,29.76
2019-05-22T17:34:36.970Z,29.62
2019-05-22T17:37:20.532Z,29.84
2019-05-22T17:39:57.900Z,29.78
2019-05-22T17:42:35.457Z,29.80
2019-05-22T17:45:14.186Z,29.61
2019-05-22T17:47:52.207Z,29.77
2019-05-22T17:50:30.536Z,29.80
2019-05-22T17:53:09.043Z,29.82
2019-05-22T17:55:46.860Z,29.93
2019-05-22T17:58:29.764Z,30.16
2019-05-22T18:01:05.834Z,30.31
2019-05-22T18:03:43.672Z,30.17
2019-05-22T18:06:21.941Z,30.11
2019-05-22T18:09:00.481Z,29.95
2019-05-22T18:11:39.219Z,29.76
2019-05-22T18:14:17.254Z,29.72
2019-05-22T18:16:54.360Z,29.94
2019-05-22T18:19:32.984Z,30.06
2019-05-22T18:22:11.121Z,29.92
2019-05-22T18:24:48.893Z,29.92
2019-05-22T18:27:26.631Z,29.93
2019-05-22T18:30:05.146Z,29.81
2019-05-22T18:32:43.868Z,29.65
2019-05-22T18:35:21.947Z,29.55
2019-05-22T18:38:04.427Z,29.60
2019-05-22T18:40:40.062Z,29.60
2019-05-22T18:43:18.949Z,29.68
2019-05-22T18:45:57.164Z,29.71
2019-05-22T18:48:34.450Z,29.79
2019-05-22T18:51:12.869Z,29.83
2019-05-22T18:53:51.206Z,29.99
2019-05-22T18:56:28.791Z,29.83
2019-05-22T18:59:06.803Z,29.96
2019-05-22T19:01:45.815Z,29.70
2019-05-22T19:04:23.466Z,29.96
2019-05-22T19:07:01.264Z,29.72
2019-05-22T19:09:39.838Z,29.84
2019-05-22T19:12:19.691Z,29.91
2019-05-22T19:14:57.304Z,29.90
2019-05-22T19:17:34.221Z,30.00
2019-05-22T19:20:14.004Z,29.84
2019-05-22T19:23:00.067Z,29.85
2019-05-22T19:25:31.757Z,29.87
2019-05-22T19:28:09.095Z,29.85
2019-05-22T19:30:46.360Z,29.60
2019-05-22T19:33:24.006Z,29.52
2019-05-22T19:36:01.004Z,29.51
2019-05-22T19:38:42.791Z,29.42
2019-05-22T19:41:21.729Z,29.15
2019-05-22T19:43:59.631Z,29.19
2019-05-22T19:46:37.077Z,29.23
2019-05-22T19:49:14.890Z,29.22
2019-05-22T19:51:53.454Z,29.26
2019-05-22T19:54:32.282Z,29.58
2019-05-22T19:57:10.936Z,29.70
2019-05-22T19:59:49.346Z,29.62
2019-05-22T20:02:27.695Z,29.15
2019-05-22T20:05:06.287Z,29.09
2019-05-22T20:07:45.064Z,28.84
2019-05-22T20:10:22.670Z,28.71
2019-05-22T20:13:02.779Z,28.77
2019-05-22T20:15:44.913Z,28.80
2019-05-22T20:18:23.440Z,29.25
2019-05-22T20:21:01.305Z,29.56
2019-05-22T20:23:39.649Z,29.69
2019-05-22T20:26:18.227Z,29.31
2019-05-22T20:28:55.808Z,29.23
2019-05-22T20:31:37.128Z,29.05
2019-05-22T20:34:15.239Z,29.04
2019-05-22T20:36:53.129Z,28.92
2019-05-22T20:39:31.153Z,28.80
2019-05-22T20:42:11.219Z,28.76
2019-05-22T20:44:49.747Z,28.88
2019-05-22T20:47:29.464Z,28.79
2019-05-22T20:50:07.137Z,28.59
2019-05-22T20:52:45.363Z,28.53
2019-05-22T20:55:23.530Z,28.67
2019-05-22T20:58:01.067Z,29.07
2019-05-22T21:00:42.874Z,29.26
2019-05-22T21:03:21.743Z,29.25
2019-05-22T21:05:59.317Z,29.33
2019-05-22T21:08:39.219Z,29.45
2019-05-22T21:11:17.311Z,29.46
2019-05-22T21:13:55.016Z,29.45
2019-05-22T21:16:33.933Z,29.38
2019-05-22T21:19:14.846Z,29.32
2019-05-22T21:21:52.295Z,29.37
2019-05-22T21:24:36.454Z,28.91
2019-05-22T21:27:14.883Z,28.89
2019-05-22T21:29:53.679Z,28.58
2019-05-22T21:32:31.040Z,28.89
2019-05-22T21:35:09.151Z,29.15
2019-05-22T21:37:46.626Z,28.74
2019-05-22T21:40:25.343Z,28.65
2019-05-22T21:43:03.739Z,28.49
2019-05-22T21:45:41.811Z,28.69
2019-05-22T21:48:20.631Z,28.80
2019-05-22T21:50:59.528Z,28.93
2019-05-22T21:53:37.307Z,28.81
2019-05-22T21:56:16.860Z,28.90
2019-05-22T21:58:56.833Z,28.90
2019-05-22T22:01:58.121Z,28.73
2019-05-22T22:04:37.760Z,28.78
2019-05-22T22:07:15.624Z,28.78
2019-05-22T22:09:53.736Z,28.79
2019-05-22T22:12:31.873Z,28.68
2019-05-22T22:15:09.323Z,28.68
2019-05-22T22:17:49.408Z,28.81
2019-05-22T22:20:27.726Z,28.74
2019-05-22T22:23:08.991Z,28.63
2019-05-22T22:25:47.358Z,28.88
2019-05-22T22:28:26.455Z,29.12
2019-05-22T22:31:07.631Z,29.00
2019-05-22T22:33:49.420Z,28.84
2019-05-22T22:36:26.953Z,28.90
2019-05-22T22:39:04.740Z,29.31
2019-05-22T22:41:42.324Z,29.30
2019-05-22T22:44:22.356Z,29.07
2019-05-22T22:47:02.685Z,29.05
2019-05-22T22:49:41.520Z,29.20
2019-05-22T22:52:22.062Z,29.16
2019-05-22T22:55:00.773Z,29.02
2019-05-22T22:57:39.391Z,29.14
2019-05-22T23:00:20.275Z,28.99
2019-05-22T23:02:58.452Z,28.96
2019-05-22T23:05:39.119Z,28.89
2019-05-22T23:08:22.981Z,28.83
2019-05-22T23:11:02.633Z,28.83
2019-05-22T23:13:41.859Z,29.09
2019-05-22T23:16:22.379Z,29.16
2019-05-22T23:19:48.211Z,29.24
2019-05-22T23:22:27.725Z,29.01
2019-05-22T23:25:07.957Z,28.92
2019-05-22T23:27:47.364Z,29.05
2019-05-22T23:30:24.971Z,28.91
2019-05-22T23:33:03.665Z,29.02
2019-05-22T23:35:41.406Z,29.05
2019-05-22T23:38:22.580Z,29.02
2019-05-22T23:41:00.178Z,29.26
2019-05-22T23:43:37.828Z,29.47
2019-05-22T23:46:16.559Z,29.70
2019-05-22T23:48:54.954Z,29.68
2019-05-22T23:51:32.422Z,29.70
2019-05-22T23:54:12.577Z,29.62
2019-05-22T23:56:50.666Z,29.73
2019-05-22T23:59:32.474Z,29.70
